sensor_id;sensor_type;location;lat;lon;timestamp;pressure;altitude;pressure_sealevel;temperature;humidity
76297;BME280;65104;52.994;6.552;2023-11-18T00:00:22;102403.41;;;2.05;100.00
76297;BME280;65104;52.994;6.552;2023-11-18T00:02:47;102404.06;;;2.03;100.00
76297;BME280;65104;52.994;6.552;2023-11-18T00:05:13;102403.03;;;2.01;100.00
76297;BME280;65104;52.994;6.552;2023-11-18T00:07:39;102404.06;;;2.03;100.00
76297;BME280;65104;52.994;6.552;2023-11-18T00:10:05;102400.50;;;2.01;100.00
76297;BME280;65104;52.994;6.552;2023-11-18T00:12:32;102403.28;;;2.04;100.00
76297;BME280;65104;52.994;6.552;2023-11-18T00:15:01;102408.47;;;2.05;100.00
76297;BME280;65104;52.994;6.552;2023-11-18T00:17:29;102405.06;;;2.05;100.00
76297;BME280;65104;52.994;6.552;2023-11-18T00:19:54;102399.88;;;2.03;100.00
76297;BME280;65104;52.994;6.552;2023-11-18T00:22:20;102402.28;;;2.02;100.00
76297;BME280;65104;52.994;6.552;2023-11-18T00:24:45;102405.81;;;2.04;100.00
76297;BME280;65104;52.994;6.552;2023-11-18T00:27:11;102399.22;;;2.06;100.00
76297;BME280;65104;52.994;6.552;2023-11-18T00:29:36;102404.00;;;2.13;100.00
76297;BME280;65104;52.994;6.552;2023-11-18T00:32:03;102401.69;;;2.16;100.00
76297;BME280;65104;52.994;6.552;2023-11-18T00:34:29;102396.63;;;2.16;100.00
76297;BME280;65104;52.994;6.552;2023-11-18T00:36:55;102401.03;;;2.18;100.00
76297;BME280;65104;52.994;6.552;2023-11-18T00:39:23;102397.75;;;2.19;100.00
76297;BME280;65104;52.994;6.552;2023-11-18T00:41:48;102396.97;;;2.20;100.00
76297;BME280;65104;52.994;6.552;2023-11-18T00:44:14;102392.69;;;2.19;100.00
76297;BME280;65104;52.994;6.552;2023-11-18T00:46:39;102400.91;;;2.17;100.00
76297;BME280;65104;52.994;6.552;2023-11-18T00:49:05;102399.28;;;2.17;100.00
76297;BME280;65104;52.994;6.552;2023-11-18T00:51:31;102401.69;;;2.16;100.00
76297;BME280;65104;52.994;6.552;2023-11-18T00:53:56;102399.06;;;2.14;100.00
76297;BME280;65104;52.994;6.552;2023-11-18T00:56:22;102393.19;;;2.15;100.00
76297;BME280;65104;52.994;6.552;2023-11-18T00:58:48;102395.72;;;2.15;100.00
76297;BME280;65104;52.994;6.552;2023-11-18T01:01:13;102391.09;;;2.10;100.00
76297;BME280;65104;52.994;6.552;2023-11-18T01:03:46;102397.03;;;2.10;100.00
76297;BME280;65104;52.994;6.552;2023-11-18T01:06:12;102395.38;;;2.11;100.00
76297;BME280;65104;52.994;6.552;2023-11-18T01:08:37;102403.00;;;2.11;100.00
76297;BME280;65104;52.994;6.552;2023-11-18T01:11:02;102402.09;;;2.10;100.00
76297;BME280;65104;52.994;6.552;2023-11-18T01:13:30;102404.31;;;2.06;100.00
76297;BME280;65104;52.994;6.552;2023-11-18T01:15:56;102402.69;;;1.96;100.00
76297;BME280;65104;52.994;6.552;2023-11-18T01:18:21;102406.88;;;1.96;100.00
76297;BME280;65104;52.994;6.552;2023-11-18T01:20:47;102408.41;;;1.94;100.00
76297;BME280;65104;52.994;6.552;2023-11-18T01:23:12;102409.91;;;1.92;100.00
76297;BME280;65104;52.994;6.552;2023-11-18T01:25:38;102407.03;;;1.87;100.00
76297;BME280;65104;52.994;6.552;2023-11-18T01:28:05;102407.25;;;1.90;100.00
76297;BME280;65104;52.994;6.552;2023-11-18T01:30:30;102404.84;;;1.92;100.00
76297;BME280;65104;52.994;6.552;2023-11-18T01:32:56;102398.56;;;1.86;100.00
76297;BME280;65104;52.994;6.552;2023-11-18T01:35:22;102401.97;;;1.87;100.00
76297;BME280;65104;52.994;6.552;2023-11-18T01:37:51;102406.38;;;1.89;100.00
76297;BME280;65104;52.994;6.552;2023-11-18T01:40:16;102400.34;;;1.87;100.00
76297;BME280;65104;52.994;6.552;2023-11-18T01:42:43;102404.50;;;1.87;100.00
76297;BME280;65104;52.994;6.552;2023-11-18T01:45:09;102408.78;;;1.88;100.00
76297;BME280;65104;52.994;6.552;2023-11-18T01:47:37;102409.66;;;1.88;100.00
76297;BME280;65104;52.994;6.552;2023-11-18T01:50:03;102413.75;;;1.86;100.00
76297;BME280;65104;52.994;6.552;2023-11-18T01:52:31;102402.63;;;1.84;100.00
76297;BME280;65104;52.994;6.552;2023-11-18T01:54:57;102398.44;;;1.85;100.00
76297;BME280;65104;52.994;6.552;2023-11-18T01:57:23;102401.44;;;1.91;100.00
76297;BME280;65104;52.994;6.552;2023-11-18T01:59:52;102393.19;;;1.94;100.00
76297;BME280;65104;52.994;6.552;2023-11-18T02:02:19;102386.06;;;2.00;100.00
76297;BME280;65104;52.994;6.552;2023-11-18T02:04:46;102393.44;;;1.97;100.00
76297;BME280;65104;52.994;6.552;2023-11-18T02:07:12;102391.13;;;2.00;100.00
76297;BME280;65104;52.994;6.552;2023-11-18T02:09:40;102397.22;;;2.02;100.00
76297;BME280;65104;52.994;6.552;2023-11-18T02:12:18;102393.66;;;2.00;100.00
76297;BME280;65104;52.994;6.552;2023-11-18T02:14:45;102389.75;;;2.03;100.00
76297;BME280;65104;52.994;6.552;2023-11-18T02:17:14;102388.31;;;2.07;100.00
76297;BME280;65104;52.994;6.552;2023-11-18T02:19:40;102379.19;;;2.09;100.00
76297;BME280;65104;52.994;6.552;2023-11-18T02:22:06;102386.47;;;2.16;100.00
76297;BME280;65104;52.994;6.552;2023-11-18T02:24:33;102384.25;;;2.09;100.00
76297;BME280;65104;52.994;6.552;2023-11-18T02:27:03;102383.72;;;2.13;100.00
76297;BME280;65104;52.994;6.552;2023-11-18T02:29:34;102385.25;;;2.11;100.00
76297;BME280;65104;52.994;6.552;2023-11-18T02:33:03;102388.81;;;2.13;100.00
76297;BME280;65104;52.994;6.552;2023-11-18T02:35:11;102394.09;;;2.16;100.00
76297;BME280;65104;52.994;6.552;2023-11-18T02:37:42;102399.91;;;2.15;100.00
76297;BME280;65104;52.994;6.552;2023-11-18T02:40:12;102400.34;;;2.09;100.00
76297;BME280;65104;52.994;6.552;2023-11-18T02:42:43;102391.34;;;2.13;100.00
76297;BME280;65104;52.994;6.552;2023-11-18T02:45:11;102396.75;;;2.17;100.00
76297;BME280;65104;52.994;6.552;2023-11-18T02:47:40;102392.56;;;2.18;100.00
76297;BME280;65104;52.994;6.552;2023-11-18T02:50:06;102387.63;;;2.19;100.00
76297;BME280;65104;52.994;6.552;2023-11-18T02:52:36;102389.25;;;2.19;100.00
76297;BME280;65104;52.994;6.552;2023-11-18T02:55:04;102378.59;;;2.23;100.00
76297;BME280;65104;52.994;6.552;2023-11-18T02:57:31;102375.28;;;2.24;100.00
76297;BME280;65104;52.994;6.552;2023-11-18T02:59:58;102360.63;;;2.20;100.00
76297;BME280;65104;52.994;6.552;2023-11-18T03:02:28;102365.56;;;2.18;100.00
76297;BME280;65104;52.994;6.552;2023-11-18T03:04:59;102367.66;;;2.24;100.00
76297;BME280;65104;52.994;6.552;2023-11-18T03:07:25;102361.19;;;2.28;100.00
76297;BME280;65104;52.994;6.552;2023-11-18T03:09:52;102368.38;;;2.33;100.00
76297;BME280;65104;52.994;6.552;2023-11-18T03:12:22;102368.38;;;2.33;100.00
76297;BME280;65104;52.994;6.552;2023-11-18T03:14:47;102362.53;;;2.34;100.00
76297;BME280;65104;52.994;6.552;2023-11-18T03:17:13;102351.63;;;2.35;100.00
76297;BME280;65104;52.994;6.552;2023-11-18T03:19:38;102345.81;;;2.36;100.00
76297;BME280;65104;52.994;6.552;2023-11-18T03:22:04;102345.38;;;2.42;100.00
76297;BME280;65104;52.994;6.552;2023-11-18T03:24:29;102354.88;;;2.44;100.00
76297;BME280;65104;52.994;6.552;2023-11-18T03:26:55;102354.09;;;2.45;100.00
76297;BME280;65104;52.994;6.552;2023-11-18T03:29:21;102348.59;;;2.51;100.00
76297;BME280;65104;52.994;6.552;2023-11-18T03:31:46;102345.22;;;2.50;100.00
76297;BME280;65104;52.994;6.552;2023-11-18T03:34:16;102347.63;;;2.49;100.00
76297;BME280;65104;52.994;6.552;2023-11-18T03:36:48;102355.03;;;2.57;100.00
76297;BME280;65104;52.994;6.552;2023-11-18T03:39:13;102353.72;;;2.62;100.00
76297;BME280;65104;52.994;6.552;2023-11-18T03:41:40;102356.38;;;2.64;100.00
76297;BME280;65104;52.994;6.552;2023-11-18T03:44:05;102353.59;;;2.61;100.00
76297;BME280;65104;52.994;6.552;2023-11-18T03:46:31;102351.16;;;2.62;100.00
76297;BME280;65104;52.994;6.552;2023-11-18T03:49:00;102354.84;;;2.66;100.00
76297;BME280;65104;52.994;6.552;2023-11-18T03:51:25;102355.28;;;2.72;100.00
76297;BME280;65104;52.994;6.552;2023-11-18T03:53:50;102360.47;;;2.74;100.00
76297;BME280;65104;52.994;6.552;2023-11-18T03:56:17;102351.31;;;2.76;100.00
76297;BME280;65104;52.994;6.552;2023-11-18T03:58:45;102342.38;;;2.81;100.00
76297;BME280;65104;52.994;6.552;2023-11-18T04:01:24;102342.75;;;2.85;100.00
76297;BME280;65104;52.994;6.552;2023-11-18T04:03:52;102328.41;;;2.86;100.00
76297;BME280;65104;52.994;6.552;2023-11-18T04:06:18;102327.97;;;2.91;100.00
76297;BME280;65104;52.994;6.552;2023-11-18T04:08:45;102312.84;;;2.93;100.00
76297;BME280;65104;52.994;6.552;2023-11-18T04:11:11;102304.00;;;2.88;100.00
76297;BME280;65104;52.994;6.552;2023-11-18T04:13:36;102297.16;;;2.87;100.00
76297;BME280;65104;52.994;6.552;2023-11-18T04:16:02;102302.59;;;2.91;100.00
76297;BME280;65104;52.994;6.552;2023-11-18T04:18:28;102300.16;;;2.93;100.00
76297;BME280;65104;52.994;6.552;2023-11-18T04:20:54;102290.13;;;2.94;100.00
76297;BME280;65104;52.994;6.552;2023-11-18T04:23:19;102281.72;;;2.95;100.00
76297;BME280;65104;52.994;6.552;2023-11-18T04:25:44;102274.56;;;2.90;100.00
76297;BME280;65104;52.994;6.552;2023-11-18T04:28:10;102273.81;;;2.91;100.00
76297;BME280;65104;52.994;6.552;2023-11-18T04:30:35;102279.31;;;2.97;100.00
76297;BME280;65104;52.994;6.552;2023-11-18T04:33:01;102264.97;;;2.97;100.00
76297;BME280;65104;52.994;6.552;2023-11-18T04:35:26;102272.94;;;3.02;100.00
76297;BME280;65104;52.994;6.552;2023-11-18T04:37:51;102272.47;;;3.08;100.00
76297;BME280;65104;52.994;6.552;2023-11-18T04:40:17;102269.16;;;3.09;100.00
76297;BME280;65104;52.994;6.552;2023-11-18T04:42:42;102277.66;;;3.09;100.00
76297;BME280;65104;52.994;6.552;2023-11-18T04:45:08;102277.19;;;3.15;100.00
76297;BME280;65104;52.994;6.552;2023-11-18T04:47:35;102274.00;;;3.17;100.00
76297;BME280;65104;52.994;6.552;2023-11-18T04:50:01;102268.03;;;3.17;100.00
76297;BME280;65104;52.994;6.552;2023-11-18T04:52:28;102270.94;;;3.21;100.00
76297;BME280;65104;52.994;6.552;2023-11-18T04:54:54;102263.41;;;3.23;100.00
76297;BME280;65104;52.994;6.552;2023-11-18T04:57:19;102252.69;;;3.27;100.00
76297;BME280;65104;52.994;6.552;2023-11-18T04:59:44;102263.28;;;3.33;100.00
76297;BME280;65104;52.994;6.552;2023-11-18T05:02:10;102262.63;;;3.35;100.00
76297;BME280;65104;52.994;6.552;2023-11-18T05:04:35;102263.72;;;3.39;100.00
76297;BME280;65104;52.994;6.552;2023-11-18T05:07:01;102258.72;;;3.40;100.00
76297;BME280;65104;52.994;6.552;2023-11-18T05:09:26;102257.97;;;3.42;100.00
76297;BME280;65104;52.994;6.552;2023-11-18T05:11:51;102260.72;;;3.45;100.00
76297;BME280;65104;52.994;6.552;2023-11-18T05:14:17;102258.59;;;3.51;100.00
76297;BME280;65104;52.994;6.552;2023-11-18T05:16:43;102262.72;;;3.49;100.00
76297;BME280;65104;52.994;6.552;2023-11-18T05:19:09;102254.28;;;3.50;100.00
76297;BME280;65104;52.994;6.552;2023-11-18T05:21:34;102252.75;;;3.52;100.00
76297;BME280;65104;52.994;6.552;2023-11-18T05:23:59;102240.38;;;3.56;100.00
76297;BME280;65104;52.994;6.552;2023-11-18T05:26:25;102246.34;;;3.57;100.00
76297;BME280;65104;52.994;6.552;2023-11-18T05:28:52;102256.50;;;3.57;100.00
76297;BME280;65104;52.994;6.552;2023-11-18T05:31:17;102248.31;;;3.61;100.00
76297;BME280;65104;52.994;6.552;2023-11-18T05:33:43;102240.13;;;3.65;100.00
76297;BME280;65104;52.994;6.552;2023-11-18T05:36:09;102238.56;;;3.67;100.00
76297;BME280;65104;52.994;6.552;2023-11-18T05:38:36;102241.31;;;3.70;100.00
76297;BME280;65104;52.994;6.552;2023-11-18T05:41:02;102244.63;;;3.69;100.00
76297;BME280;65104;52.994;6.552;2023-11-18T05:43:30;102228.38;;;3.67;100.00
76297;BME280;65104;52.994;6.552;2023-11-18T05:46:03;102226.53;;;3.64;100.00
76297;BME280;65104;52.994;6.552;2023-11-18T05:48:48;102233.91;;;3.73;100.00
76297;BME280;65104;52.994;6.552;2023-11-18T05:51:18;102222.38;;;3.78;100.00
76297;BME280;65104;52.994;6.552;2023-11-18T05:53:45;102234.44;;;3.81;100.00
76297;BME280;65104;52.994;6.552;2023-11-18T05:56:14;102241.16;;;3.80;100.00
76297;BME280;65104;52.994;6.552;2023-11-18T05:58:42;102240.41;;;3.81;100.00
76297;BME280;65104;52.994;6.552;2023-11-18T06:01:08;102245.59;;;3.83;100.00
76297;BME280;65104;52.994;6.552;2023-11-18T06:03:34;102234.84;;;3.87;100.00
76297;BME280;65104;52.994;6.552;2023-11-18T06:06:10;102227.81;;;3.83;100.00
76297;BME280;65104;52.994;6.552;2023-11-18T06:08:39;102231.34;;;3.85;100.00
76297;BME280;65104;52.994;6.552;2023-11-18T06:11:11;102222.13;;;3.87;100.00
76297;BME280;65104;52.994;6.552;2023-11-18T06:16:15;102223.00;;;3.87;100.00
76297;BME280;65104;52.994;6.552;2023-11-18T06:18:44;102216.38;;;3.89;100.00
76297;BME280;65104;52.994;6.552;2023-11-18T06:21:30;102206.31;;;3.91;100.00
76297;BME280;65104;52.994;6.552;2023-11-18T06:23:57;102211.31;;;3.89;100.00
76297;BME280;65104;52.994;6.552;2023-11-18T06:26:23;102209.25;;;3.97;100.00
76297;BME280;65104;52.994;6.552;2023-11-18T06:28:53;102205.19;;;3.99;100.00
76297;BME280;65104;52.994;6.552;2023-11-18T06:31:19;102214.69;;;4.01;100.00
76297;BME280;65104;52.994;6.552;2023-11-18T06:33:46;102221.53;;;4.02;100.00
76297;BME280;65104;52.994;6.552;2023-11-18T06:38:48;102209.78;;;4.04;100.00
76297;BME280;65104;52.994;6.552;2023-11-18T06:41:22;102207.56;;;4.09;100.00
76297;BME280;65104;52.994;6.552;2023-11-18T06:43:58;102196.28;;;4.05;100.00
76297;BME280;65104;52.994;6.552;2023-11-18T06:46:31;102199.81;;;4.07;100.00
76297;BME280;65104;52.994;6.552;2023-11-18T06:49:00;102207.66;;;4.10;100.00
76297;BME280;65104;52.994;6.552;2023-11-18T06:51:29;102199.25;;;4.11;100.00
76297;BME280;65104;52.994;6.552;2023-11-18T06:53:55;102201.69;;;4.10;100.00
76297;BME280;65104;52.994;6.552;2023-11-18T06:56:21;102211.97;;;4.11;100.00
76297;BME280;65104;52.994;6.552;2023-11-18T06:58:46;102213.63;;;4.11;100.00
76297;BME280;65104;52.994;6.552;2023-11-18T07:01:13;102217.84;;;4.10;100.00
76297;BME280;65104;52.994;6.552;2023-11-18T07:03:40;102222.69;;;4.07;100.00
76297;BME280;65104;52.994;6.552;2023-11-18T07:06:06;102235.28;;;4.06;100.00
76297;BME280;65104;52.994;6.552;2023-11-18T07:08:32;102231.50;;;4.12;100.00
76297;BME280;65104;52.994;6.552;2023-11-18T07:11:00;102227.47;;;4.03;100.00
76297;BME280;65104;52.994;6.552;2023-11-18T07:13:27;102232.19;;;4.10;100.00
76297;BME280;65104;52.994;6.552;2023-11-18T07:15:52;102239.72;;;4.08;100.00
76297;BME280;65104;52.994;6.552;2023-11-18T07:18:19;102246.97;;;4.15;100.00
76297;BME280;65104;52.994;6.552;2023-11-18T07:20:47;102244.22;;;4.12;100.00
76297;BME280;65104;52.994;6.552;2023-11-18T07:23:13;102248.34;;;4.10;100.00
76297;BME280;65104;52.994;6.552;2023-11-18T07:25:38;102245.97;;;4.13;100.00
76297;BME280;65104;52.994;6.552;2023-11-18T07:28:04;102235.03;;;4.14;100.00
76297;BME280;65104;52.994;6.552;2023-11-18T07:30:30;102225.19;;;4.19;100.00
76297;BME280;65104;52.994;6.552;2023-11-18T07:32:56;102225.69;;;4.27;100.00
76297;BME280;65104;52.994;6.552;2023-11-18T07:35:25;102220.59;;;4.27;100.00
76297;BME280;65104;52.994;6.552;2023-11-18T07:37:52;102214.03;;;4.30;100.00
76297;BME280;65104;52.994;6.552;2023-11-18T07:40:17;102215.91;;;4.33;100.00
76297;BME280;65104;52.994;6.552;2023-11-18T07:42:47;102211.81;;;4.35;100.00
76297;BME280;65104;52.994;6.552;2023-11-18T07:45:12;102208.88;;;4.42;100.00
76297;BME280;65104;52.994;6.552;2023-11-18T07:47:44;102217.50;;;4.44;100.00
76297;BME280;65104;52.994;6.552;2023-11-18T07:50:10;102224.03;;;4.40;100.00
76297;BME280;65104;52.994;6.552;2023-11-18T07:52:39;102222.47;;;4.42;100.00
76297;BME280;65104;52.994;6.552;2023-11-18T07:55:05;102228.56;;;4.44;100.00
76297;BME280;65104;52.994;6.552;2023-11-18T07:57:30;102220.81;;;4.43;100.00
76297;BME280;65104;52.994;6.552;2023-11-18T07:59:55;102234.63;;;4.46;100.00
76297;BME280;65104;52.994;6.552;2023-11-18T08:02:21;102232.97;;;4.47;100.00
76297;BME280;65104;52.994;6.552;2023-11-18T08:04:46;102221.81;;;4.45;100.00
76297;BME280;65104;52.994;6.552;2023-11-18T08:07:12;102225.91;;;4.43;100.00
76297;BME280;65104;52.994;6.552;2023-11-18T08:09:38;102224.75;;;4.51;100.00
76297;BME280;65104;52.994;6.552;2023-11-18T08:12:05;102230.59;;;4.50;100.00
76297;BME280;65104;52.994;6.552;2023-11-18T08:14:34;102232.59;;;4.54;100.00
76297;BME280;65104;52.994;6.552;2023-11-18T08:16:59;102224.84;;;4.52;100.00
76297;BME280;65104;52.994;6.552;2023-11-18T08:19:25;102210.69;;;4.56;100.00
76297;BME280;65104;52.994;6.552;2023-11-18T08:21:50;102216.22;;;4.50;100.00
76297;BME280;65104;52.994;6.552;2023-11-18T08:24:17;102211.34;;;4.53;100.00
76297;BME280;65104;52.994;6.552;2023-11-18T08:26:42;102208.19;;;4.58;100.00
76297;BME280;65104;52.994;6.552;2023-11-18T08:29:08;102204.78;;;4.57;100.00
76297;BME280;65104;52.994;6.552;2023-11-18T08:31:33;102196.38;;;4.58;100.00
76297;BME280;65104;52.994;6.552;2023-11-18T08:33:59;102185.91;;;4.53;100.00
76297;BME280;65104;52.994;6.552;2023-11-18T08:36:25;102183.25;;;4.52;100.00
76297;BME280;65104;52.994;6.552;2023-11-18T08:38:53;102179.34;;;4.57;100.00
76297;BME280;65104;52.994;6.552;2023-11-18T08:41:21;102170.47;;;4.64;100.00
76297;BME280;65104;52.994;6.552;2023-11-18T08:43:47;102165.25;;;4.62;100.00
76297;BME280;65104;52.994;6.552;2023-11-18T08:46:14;102162.94;;;4.65;100.00
76297;BME280;65104;52.994;6.552;2023-11-18T08:48:40;102154.88;;;4.59;100.00
76297;BME280;65104;52.994;6.552;2023-11-18T08:51:07;102153.59;;;4.66;100.00
76297;BME280;65104;52.994;6.552;2023-11-18T08:53:34;102139.41;;;4.69;100.00
76297;BME280;65104;52.994;6.552;2023-11-18T08:56:08;102128.47;;;4.70;100.00
76297;BME280;65104;52.994;6.552;2023-11-18T08:58:39;102126.13;;;4.73;100.00
76297;BME280;65104;52.994;6.552;2023-11-18T09:01:05;102124.53;;;4.75;100.00
76297;BME280;65104;52.994;6.552;2023-11-18T09:03:42;102125.13;;;4.71;100.00
76297;BME280;65104;52.994;6.552;2023-11-18T09:06:17;102119.84;;;4.68;100.00
76297;BME280;65104;52.994;6.552;2023-11-18T09:08:44;102111.06;;;4.63;100.00
76297;BME280;65104;52.994;6.552;2023-11-18T09:11:12;102109.66;;;4.68;100.00
76297;BME280;65104;52.994;6.552;2023-11-18T09:13:51;102101.34;;;4.71;100.00
76297;BME280;65104;52.994;6.552;2023-11-18T09:16:19;102106.75;;;4.62;100.00
76297;BME280;65104;52.994;6.552;2023-11-18T09:18:50;102105.47;;;4.69;100.00
76297;BME280;65104;52.994;6.552;2023-11-18T09:21:16;102106.34;;;4.69;100.00
76297;BME280;65104;52.994;6.552;2023-11-18T09:23:44;102108.63;;;4.65;100.00
76297;BME280;65104;52.994;6.552;2023-11-18T09:26:10;102122.91;;;4.63;100.00
76297;BME280;65104;52.994;6.552;2023-11-18T09:28:37;102111.06;;;4.63;100.00
76297;BME280;65104;52.994;6.552;2023-11-18T09:31:06;102110.66;;;4.57;100.00
76297;BME280;65104;52.994;6.552;2023-11-18T09:33:37;102104.41;;;4.65;100.00
76297;BME280;65104;52.994;6.552;2023-11-18T09:36:06;102089.31;;;4.68;100.00
76297;BME280;65104;52.994;6.552;2023-11-18T09:38:36;102093.22;;;4.76;100.00
76297;BME280;65104;52.994;6.552;2023-11-18T09:41:03;102087.97;;;4.73;100.00
76297;BME280;65104;52.994;6.552;2023-11-18T09:43:32;102099.69;;;4.71;100.00
76297;BME280;65104;52.994;6.552;2023-11-18T09:46:09;102105.94;;;4.76;100.00
76297;BME280;65104;52.994;6.552;2023-11-18T09:48:44;102102.50;;;4.76;100.00
76297;BME280;65104;52.994;6.552;2023-11-18T09:51:20;102102.72;;;4.79;100.00
76297;BME280;65104;52.994;6.552;2023-11-18T09:53:49;102087.34;;;4.77;100.00
76297;BME280;65104;52.994;6.552;2023-11-18T09:56:27;102074.91;;;4.82;100.00
76297;BME280;65104;52.994;6.552;2023-11-18T09:59:14;102059.34;;;4.77;100.00
76297;BME280;65104;52.994;6.552;2023-11-18T10:01:49;102047.50;;;4.78;100.00
76297;BME280;65104;52.994;6.552;2023-11-18T10:04:19;102056.38;;;4.84;100.00
76297;BME280;65104;52.994;6.552;2023-11-18T10:06:46;102051.69;;;4.90;100.00
76297;BME280;65104;52.994;6.552;2023-11-18T10:09:12;102049.84;;;4.88;100.00
76297;BME280;65104;52.994;6.552;2023-11-18T10:11:47;102053.53;;;4.93;100.00
76297;BME280;65104;52.994;6.552;2023-11-18T10:14:14;102063.63;;;4.92;100.00
76297;BME280;65104;52.994;6.552;2023-11-18T10:16:41;102047.38;;;4.89;100.00
76297;BME280;65104;52.994;6.552;2023-11-18T10:19:07;102031.34;;;4.90;100.00
76297;BME280;65104;52.994;6.552;2023-11-18T10:21:37;102047.38;;;4.89;100.00
76297;BME280;65104;52.994;6.552;2023-11-18T10:24:06;102048.75;;;4.84;100.00
76297;BME280;65104;52.994;6.552;2023-11-18T10:26:42;102049.72;;;4.86;100.00
76297;BME280;65104;52.994;6.552;2023-11-18T10:29:09;102044.38;;;4.82;100.00
76297;BME280;65104;52.994;6.552;2023-11-18T10:31:35;102036.81;;;4.83;100.00
76297;BME280;65104;52.994;6.552;2023-11-18T10:34:03;102022.44;;;4.84;100.00
76297;BME280;65104;52.994;6.552;2023-11-18T10:36:29;102020.59;;;4.81;100.00
76297;BME280;65104;52.994;6.552;2023-11-18T10:38:56;102009.69;;;4.84;100.00
76297;BME280;65104;52.994;6.552;2023-11-18T10:41:22;102016.06;;;4.90;100.00
76297;BME280;65104;52.994;6.552;2023-11-18T10:43:48;101999.47;;;4.82;100.00
76297;BME280;65104;52.994;6.552;2023-11-18T10:46:15;101997.69;;;4.81;100.00
76297;BME280;65104;52.994;6.552;2023-11-18T10:51:09;101997.69;;;4.81;100.00
76297;BME280;65104;52.994;6.552;2023-11-18T10:53:37;102006.00;;;4.79;100.00
76297;BME280;65104;52.994;6.552;2023-11-18T10:56:04;102013.34;;;4.74;100.00
76297;BME280;65104;52.994;6.552;2023-11-18T10:58:37;102007.97;;;4.83;100.00
76297;BME280;65104;52.994;6.552;2023-11-18T11:01:06;101994.28;;;4.81;100.00
76297;BME280;65104;52.994;6.552;2023-11-18T11:03:52;101997.97;;;4.86;100.00
76297;BME280;65104;52.994;6.552;2023-11-18T11:06:21;101974.16;;;4.85;100.00
76297;BME280;65104;52.994;6.552;2023-11-18T11:08:49;101966.03;;;4.91;100.00
76297;BME280;65104;52.994;6.552;2023-11-18T11:11:16;101958.41;;;4.91;100.00
76297;BME280;65104;52.994;6.552;2023-11-18T11:13:49;101961.31;;;4.97;100.00
76297;BME280;65104;52.994;6.552;2023-11-18T11:16:19;101955.69;;;5.03;100.00
76297;BME280;65104;52.994;6.552;2023-11-18T11:18:48;101956.31;;;4.99;100.00
76297;BME280;65104;52.994;6.552;2023-11-18T11:21:26;101962.53;;;5.04;100.00
76297;BME280;65104;52.994;6.552;2023-11-18T11:24:11;101960.78;;;5.03;100.00
76297;BME280;65104;52.994;6.552;2023-11-18T11:27:04;101955.59;;;5.01;100.00
76297;BME280;65104;52.994;6.552;2023-11-18T11:29:36;101942.16;;;5.04;100.00
76297;BME280;65104;52.994;6.552;2023-11-18T11:34:40;101930.50;;;5.07;100.00
76297;BME280;65104;52.994;6.552;2023-11-18T11:37:36;101932.09;;;5.05;100.00
76297;BME280;65104;52.994;6.552;2023-11-18T11:40:03;101935.31;;;5.03;100.00
76297;BME280;65104;52.994;6.552;2023-11-18T11:42:35;101927.59;;;5.01;100.00
76297;BME280;65104;52.994;6.552;2023-11-18T11:45:01;101924.25;;;5.02;100.00
76297;BME280;65104;52.994;6.552;2023-11-18T11:47:29;101911.63;;;5.04;100.00
76297;BME280;65104;52.994;6.552;2023-11-18T11:50:24;101920.94;;;5.03;100.00
76297;BME280;65104;52.994;6.552;2023-11-18T11:53:07;101906.38;;;5.01;100.00
76297;BME280;65104;52.994;6.552;2023-11-18T11:55:52;101904.63;;;5.00;100.00
76297;BME280;65104;52.994;6.552;2023-11-18T11:58:35;101902.84;;;4.99;100.00
76297;BME280;65104;52.994;6.552;2023-11-18T12:03:43;101905.66;;;5.03;100.00
76297;BME280;65104;52.994;6.552;2023-11-18T12:06:18;101902.31;;;5.04;100.00
76297;BME280;65104;52.994;6.552;2023-11-18T12:08:46;101898.09;;;5.05;100.00
76297;BME280;65104;52.994;6.552;2023-11-18T12:11:13;101894.44;;;5.00;100.00
76297;BME280;65104;52.994;6.552;2023-11-18T12:13:59;101887.41;;;4.96;100.00
76297;BME280;65104;52.994;6.552;2023-11-18T12:17:06;101886.00;;;5.01;100.00
76297;BME280;65104;52.994;6.552;2023-11-18T12:19:47;101878.53;;;5.04;100.00
76297;BME280;65104;52.994;6.552;2023-11-18T12:22:24;101866.50;;;5.01;100.00
76297;BME280;65104;52.994;6.552;2023-11-18T12:27:42;101851.41;;;5.04;100.00
76297;BME280;65104;52.994;6.552;2023-11-18T12:32:58;101833.09;;;5.10;100.00
76297;BME280;65104;52.994;6.552;2023-11-18T12:41:37;101819.63;;;5.12;100.00
76297;BME280;65104;52.994;6.552;2023-11-18T12:47:04;101783.97;;;5.12;100.00
76297;BME280;65104;52.994;6.552;2023-11-18T12:49:47;101777.50;;;5.17;100.00
76297;BME280;65104;52.994;6.552;2023-11-18T12:52:20;101770.66;;;5.16;100.00
76297;BME280;65104;52.994;6.552;2023-11-18T12:54:47;101771.00;;;5.08;100.00
76297;BME280;65104;52.994;6.552;2023-11-18T12:57:16;101773.72;;;5.11;100.00
76297;BME280;65104;52.994;6.552;2023-11-18T12:59:43;101777.88;;;5.09;100.00
76297;BME280;65104;52.994;6.552;2023-11-18T13:02:09;101770.38;;;5.12;100.00
76297;BME280;65104;52.994;6.552;2023-11-18T13:04:40;101771.34;;;5.14;100.00
76297;BME280;65104;52.994;6.552;2023-11-18T13:07:05;101782.31;;;5.13;100.00
76297;BME280;65104;52.994;6.552;2023-11-18T13:09:34;101783.28;;;5.15;100.00
76297;BME280;65104;52.994;6.552;2023-11-18T13:12:02;101778.28;;;5.16;100.00
76297;BME280;65104;52.994;6.552;2023-11-18T13:14:32;101771.34;;;5.14;100.00
76297;BME280;65104;52.994;6.552;2023-11-18T13:17:12;101773.28;;;5.18;100.00
76297;BME280;65104;52.994;6.552;2023-11-18T13:19:38;101777.13;;;5.26;100.00
76297;BME280;65104;52.994;6.552;2023-11-18T13:22:11;101761.75;;;5.24;100.00
76297;BME280;65104;52.994;6.552;2023-11-18T13:24:38;101750.31;;;5.33;100.00